sensor_id;sensor_type;location;lat;lon;timestamp;P1;durP1;ratioP1;P2;durP2;ratioP2
1346;SDS011;667;48.796;9.480;2022-08-21T00:02:26;4.93;;;4.20;;
1346;SDS011;667;48.796;9.480;2022-08-21T00:04:53;5.30;;;3.97;;
1346;SDS011;667;48.796;9.480;2022-08-21T00:07:19;6.40;;;3.83;;
1346;SDS011;667;48.796;9.480;2022-08-21T00:09:46;3.57;;;3.27;;
1346;SDS011;667;48.796;9.480;2022-08-21T00:12:12;5.03;;;3.00;;
1346;SDS011;667;48.796;9.480;2022-08-21T00:14:38;6.30;;;3.40;;
1346;SDS011;667;48.796;9.480;2022-08-21T00:17:05;4.80;;;3.67;;
1346;SDS011;667;48.796;9.480;2022-08-21T00:19:31;4.00;;;3.60;;
1346;SDS011;667;48.796;9.480;2022-08-21T00:21:58;5.37;;;3.70;;
1346;SDS011;667;48.796;9.480;2022-08-21T00:24:24;4.30;;;3.90;;
1346;SDS011;667;48.796;9.480;2022-08-21T00:26:50;4.10;;;3.50;;
1346;SDS011;667;48.796;9.480;2022-08-21T00:29:16;5.50;;;3.93;;
1346;SDS011;667;48.796;9.480;2022-08-21T00:31:42;6.37;;;4.00;;
1346;SDS011;667;48.796;9.480;2022-08-21T00:34:10;16.23;;;4.53;;
1346;SDS011;667;48.796;9.480;2022-08-21T00:36:36;12.17;;;5.27;;
1346;SDS011;667;48.796;9.480;2022-08-21T00:39:03;4.50;;;3.37;;
1346;SDS011;667;48.796;9.480;2022-08-21T00:41:31;4.10;;;3.70;;
1346;SDS011;667;48.796;9.480;2022-08-21T00:43:57;4.70;;;3.80;;
1346;SDS011;667;48.796;9.480;2022-08-21T00:46:23;5.33;;;4.00;;
1346;SDS011;667;48.796;9.480;2022-08-21T00:48:49;7.07;;;4.40;;
1346;SDS011;667;48.796;9.480;2022-08-21T00:54:08;6.13;;;4.50;;
1346;SDS011;667;48.796;9.480;2022-08-21T00:56:35;8.90;;;3.90;;
1346;SDS011;667;48.796;9.480;2022-08-21T00:59:02;12.83;;;4.50;;
1346;SDS011;667;48.796;9.480;2022-08-21T01:01:28;4.67;;;4.20;;
1346;SDS011;667;48.796;9.480;2022-08-21T01:03:54;4.57;;;4.10;;
1346;SDS011;667;48.796;9.480;2022-08-21T01:06:19;5.80;;;4.17;;
1346;SDS011;667;48.796;9.480;2022-08-21T01:08:45;3.80;;;3.50;;
1346;SDS011;667;48.796;9.480;2022-08-21T01:11:12;4.20;;;3.60;;
1346;SDS011;667;48.796;9.480;2022-08-21T01:13:39;3.67;;;3.37;;
1346;SDS011;667;48.796;9.480;2022-08-21T01:16:09;3.40;;;3.20;;
1346;SDS011;667;48.796;9.480;2022-08-21T01:18:36;3.83;;;3.43;;
1346;SDS011;667;48.796;9.480;2022-08-21T01:21:03;3.20;;;2.90;;
1346;SDS011;667;48.796;9.480;2022-08-21T01:23:38;4.27;;;3.70;;
1346;SDS011;667;48.796;9.480;2022-08-21T01:26:06;7.23;;;3.63;;
1346;SDS011;667;48.796;9.480;2022-08-21T01:28:42;3.97;;;3.57;;
1346;SDS011;667;48.796;9.480;2022-08-21T01:31:19;5.60;;;3.60;;
1346;SDS011;667;48.796;9.480;2022-08-21T01:33:47;6.60;;;3.37;;
1346;SDS011;667;48.796;9.480;2022-08-21T01:36:13;5.60;;;4.30;;
1346;SDS011;667;48.796;9.480;2022-08-21T01:38:39;7.80;;;4.67;;
1346;SDS011;667;48.796;9.480;2022-08-21T01:41:05;13.00;;;5.00;;
1346;SDS011;667;48.796;9.480;2022-08-21T01:43:30;8.23;;;4.77;;
1346;SDS011;667;48.796;9.480;2022-08-21T01:45:56;10.53;;;5.10;;
1346;SDS011;667;48.796;9.480;2022-08-21T01:48:22;27.30;;;5.77;;
1346;SDS011;667;48.796;9.480;2022-08-21T01:50:47;7.70;;;5.00;;
1346;SDS011;667;48.796;9.480;2022-08-21T01:53:13;10.63;;;4.40;;
1346;SDS011;667;48.796;9.480;2022-08-21T01:55:40;12.67;;;4.90;;
1346;SDS011;667;48.796;9.480;2022-08-21T01:58:07;8.63;;;4.10;;
1346;SDS011;667;48.796;9.480;2022-08-21T02:00:32;17.07;;;5.07;;
1346;SDS011;667;48.796;9.480;2022-08-21T02:02:58;8.10;;;4.60;;
1346;SDS011;667;48.796;9.480;2022-08-21T02:05:24;9.37;;;4.60;;
1346;SDS011;667;48.796;9.480;2022-08-21T02:07:51;7.47;;;3.93;;
1346;SDS011;667;48.796;9.480;2022-08-21T02:10:19;4.50;;;4.20;;
1346;SDS011;667;48.796;9.480;2022-08-21T02:12:47;8.33;;;3.73;;
1346;SDS011;667;48.796;9.480;2022-08-21T02:15:14;5.67;;;4.40;;
1346;SDS011;667;48.796;9.480;2022-08-21T02:17:59;10.00;;;4.67;;
1346;SDS011;667;48.796;9.480;2022-08-21T02:20:27;11.87;;;4.67;;
1346;SDS011;667;48.796;9.480;2022-08-21T02:22:54;10.17;;;4.83;;
1346;SDS011;667;48.796;9.480;2022-08-21T02:25:20;10.17;;;4.20;;
1346;SDS011;667;48.796;9.480;2022-08-21T02:27:48;8.93;;;3.90;;
1346;SDS011;667;48.796;9.480;2022-08-21T02:30:15;6.27;;;4.10;;
1346;SDS011;667;48.796;9.480;2022-08-21T02:32:45;10.70;;;4.60;;
1346;SDS011;667;48.796;9.480;2022-08-21T02:35:11;5.37;;;4.30;;
1346;SDS011;667;48.796;9.480;2022-08-21T02:37:43;13.63;;;4.10;;
1346;SDS011;667;48.796;9.480;2022-08-21T02:40:09;15.27;;;5.20;;
1346;SDS011;667;48.796;9.480;2022-08-21T02:42:36;24.37;;;4.80;;
1346;SDS011;667;48.796;9.480;2022-08-21T02:45:03;20.33;;;4.87;;
1346;SDS011;667;48.796;9.480;2022-08-21T02:47:29;14.20;;;4.67;;
1346;SDS011;667;48.796;9.480;2022-08-21T02:49:55;10.67;;;3.90;;
1346;SDS011;667;48.796;9.480;2022-08-21T02:52:21;10.87;;;3.67;;
1346;SDS011;667;48.796;9.480;2022-08-21T02:54:46;8.30;;;4.20;;
1346;SDS011;667;48.796;9.480;2022-08-21T02:57:12;19.83;;;4.60;;
1346;SDS011;667;48.796;9.480;2022-08-21T02:59:38;3.40;;;3.20;;
1346;SDS011;667;48.796;9.480;2022-08-21T03:02:05;3.90;;;3.60;;
1346;SDS011;667;48.796;9.480;2022-08-21T03:04:31;4.67;;;3.60;;
1346;SDS011;667;48.796;9.480;2022-08-21T03:06:57;6.93;;;4.30;;
1346;SDS011;667;48.796;9.480;2022-08-21T03:09:23;9.93;;;4.00;;
1346;SDS011;667;48.796;9.480;2022-08-21T03:11:49;4.07;;;3.50;;
1346;SDS011;667;48.796;9.480;2022-08-21T03:14:16;3.50;;;3.20;;
1346;SDS011;667;48.796;9.480;2022-08-21T03:16:42;3.40;;;3.10;;
1346;SDS011;667;48.796;9.480;2022-08-21T03:19:08;3.13;;;2.93;;
1346;SDS011;667;48.796;9.480;2022-08-21T03:21:34;8.50;;;3.70;;
1346;SDS011;667;48.796;9.480;2022-08-21T03:24:00;8.47;;;3.40;;
1346;SDS011;667;48.796;9.480;2022-08-21T03:26:25;3.27;;;3.07;;
1346;SDS011;667;48.796;9.480;2022-08-21T03:28:51;3.30;;;3.00;;
1346;SDS011;667;48.796;9.480;2022-08-21T03:31:16;3.13;;;2.83;;
1346;SDS011;667;48.796;9.480;2022-08-21T03:33:42;3.53;;;3.23;;
1346;SDS011;667;48.796;9.480;2022-08-21T03:36:08;8.33;;;3.20;;
1346;SDS011;667;48.796;9.480;2022-08-21T03:38:35;3.40;;;3.07;;
1346;SDS011;667;48.796;9.480;2022-08-21T03:41:02;3.67;;;3.40;;
1346;SDS011;667;48.796;9.480;2022-08-21T03:43:29;8.53;;;3.70;;
1346;SDS011;667;48.796;9.480;2022-08-21T03:45:55;9.30;;;3.70;;
1346;SDS011;667;48.796;9.480;2022-08-21T03:48:20;13.50;;;3.77;;
1346;SDS011;667;48.796;9.480;2022-08-21T03:50:46;8.37;;;3.70;;
1346;SDS011;667;48.796;9.480;2022-08-21T03:53:14;5.10;;;3.77;;
1346;SDS011;667;48.796;9.480;2022-08-21T03:55:41;9.63;;;4.13;;
1346;SDS011;667;48.796;9.480;2022-08-21T03:58:07;14.53;;;3.73;;
1346;SDS011;667;48.796;9.480;2022-08-21T04:00:32;13.80;;;4.10;;
1346;SDS011;667;48.796;9.480;2022-08-21T04:02:58;13.00;;;3.90;;
1346;SDS011;667;48.796;9.480;2022-08-21T04:05:25;10.47;;;3.97;;
1346;SDS011;667;48.796;9.480;2022-08-21T04:07:56;4.50;;;3.27;;
1346;SDS011;667;48.796;9.480;2022-08-21T04:10:23;7.83;;;3.40;;
1346;SDS011;667;48.796;9.480;2022-08-21T04:12:49;6.80;;;3.60;;
1346;SDS011;667;48.796;9.480;2022-08-21T04:15:15;7.10;;;3.87;;
1346;SDS011;667;48.796;9.480;2022-08-21T04:17:41;12.77;;;4.30;;
1346;SDS011;667;48.796;9.480;2022-08-21T04:20:07;14.87;;;4.30;;
1346;SDS011;667;48.796;9.480;2022-08-21T04:22:33;19.40;;;4.47;;
1346;SDS011;667;48.796;9.480;2022-08-21T04:24:59;19.57;;;3.57;;
1346;SDS011;667;48.796;9.480;2022-08-21T04:27:24;7.27;;;3.60;;
1346;SDS011;667;48.796;9.480;2022-08-21T04:29:50;9.20;;;4.03;;
1346;SDS011;667;48.796;9.480;2022-08-21T04:32:25;6.30;;;3.17;;
1346;SDS011;667;48.796;9.480;2022-08-21T04:34:57;3.60;;;3.13;;
1346;SDS011;667;48.796;9.480;2022-08-21T04:37:26;12.63;;;3.70;;
1346;SDS011;667;48.796;9.480;2022-08-21T04:39:52;10.47;;;3.27;;
1346;SDS011;667;48.796;9.480;2022-08-21T04:42:18;6.40;;;3.40;;
1346;SDS011;667;48.796;9.480;2022-08-21T04:44:43;5.90;;;3.40;;
1346;SDS011;667;48.796;9.480;2022-08-21T04:47:09;6.63;;;3.40;;
1346;SDS011;667;48.796;9.480;2022-08-21T04:49:35;6.60;;;4.20;;
1346;SDS011;667;48.796;9.480;2022-08-21T04:52:00;10.77;;;4.40;;
1346;SDS011;667;48.796;9.480;2022-08-21T04:54:26;13.63;;;4.27;;
1346;SDS011;667;48.796;9.480;2022-08-21T04:56:54;25.27;;;4.60;;
1346;SDS011;667;48.796;9.480;2022-08-21T04:59:26;9.10;;;3.17;;
1346;SDS011;667;48.796;9.480;2022-08-21T05:02:03;15.27;;;4.13;;
1346;SDS011;667;48.796;9.480;2022-08-21T05:04:31;10.00;;;3.33;;
1346;SDS011;667;48.796;9.480;2022-08-21T05:06:59;4.63;;;3.77;;
1346;SDS011;667;48.796;9.480;2022-08-21T05:09:29;9.00;;;3.43;;
1346;SDS011;667;48.796;9.480;2022-08-21T05:11:55;6.33;;;3.90;;
1346;SDS011;667;48.796;9.480;2022-08-21T05:14:21;3.93;;;3.63;;
1346;SDS011;667;48.796;9.480;2022-08-21T05:16:46;10.60;;;3.73;;
1346;SDS011;667;48.796;9.480;2022-08-21T05:19:12;13.33;;;4.20;;
1346;SDS011;667;48.796;9.480;2022-08-21T05:21:40;7.50;;;3.60;;
1346;SDS011;667;48.796;9.480;2022-08-21T05:24:07;7.20;;;3.27;;
1346;SDS011;667;48.796;9.480;2022-08-21T05:26:33;8.70;;;3.67;;
1346;SDS011;667;48.796;9.480;2022-08-21T05:28:58;13.20;;;3.93;;
1346;SDS011;667;48.796;9.480;2022-08-21T05:31:24;10.93;;;3.90;;
1346;SDS011;667;48.796;9.480;2022-08-21T05:33:50;10.40;;;3.57;;
1346;SDS011;667;48.796;9.480;2022-08-21T05:36:16;15.07;;;3.73;;
1346;SDS011;667;48.796;9.480;2022-08-21T05:38:42;7.73;;;4.33;;
1346;SDS011;667;48.796;9.480;2022-08-21T05:41:08;4.30;;;4.00;;
1346;SDS011;667;48.796;9.480;2022-08-21T05:43:34;6.33;;;3.60;;
1346;SDS011;667;48.796;9.480;2022-08-21T05:46:04;5.67;;;3.47;;
1346;SDS011;667;48.796;9.480;2022-08-21T05:48:31;24.43;;;4.43;;
1346;SDS011;667;48.796;9.480;2022-08-21T05:50:57;12.67;;;4.47;;
1346;SDS011;667;48.796;9.480;2022-08-21T05:53:23;19.20;;;4.70;;
1346;SDS011;667;48.796;9.480;2022-08-21T05:55:50;4.53;;;3.73;;
1346;SDS011;667;48.796;9.480;2022-08-21T05:58:17;4.87;;;4.10;;
1346;SDS011;667;48.796;9.480;2022-08-21T06:00:45;4.00;;;3.70;;
1346;SDS011;667;48.796;9.480;2022-08-21T06:03:13;14.63;;;4.97;;
1346;SDS011;667;48.796;9.480;2022-08-21T06:05:42;10.10;;;4.53;;
1346;SDS011;667;48.796;9.480;2022-08-21T06:08:07;11.07;;;4.70;;
1346;SDS011;667;48.796;9.480;2022-08-21T06:10:33;15.10;;;4.87;;
1346;SDS011;667;48.796;9.480;2022-08-21T06:12:58;4.97;;;4.53;;
1346;SDS011;667;48.796;9.480;2022-08-21T06:15:24;4.70;;;4.40;;
1346;SDS011;667;48.796;9.480;2022-08-21T06:17:50;10.60;;;4.90;;
1346;SDS011;667;48.796;9.480;2022-08-21T06:20:17;5.20;;;4.70;;
1346;SDS011;667;48.796;9.480;2022-08-21T06:22:43;5.10;;;4.03;;
1346;SDS011;667;48.796;9.480;2022-08-21T06:25:09;6.30;;;5.80;;
1346;SDS011;667;48.796;9.480;2022-08-21T06:27:35;6.57;;;6.07;;
1346;SDS011;667;48.796;9.480;2022-08-21T06:30:01;6.47;;;5.87;;
1346;SDS011;667;48.796;9.480;2022-08-21T06:32:27;7.10;;;6.37;;
1346;SDS011;667;48.796;9.480;2022-08-21T06:34:53;7.60;;;5.10;;
1346;SDS011;667;48.796;9.480;2022-08-21T06:37:19;5.03;;;4.63;;
1346;SDS011;667;48.796;9.480;2022-08-21T06:39:45;5.40;;;5.03;;
1346;SDS011;667;48.796;9.480;2022-08-21T06:42:14;6.97;;;6.43;;
1346;SDS011;667;48.796;9.480;2022-08-21T06:44:41;8.60;;;7.70;;
1346;SDS011;667;48.796;9.480;2022-08-21T06:47:07;8.50;;;7.70;;
1346;SDS011;667;48.796;9.480;2022-08-21T06:49:33;8.27;;;7.47;;
1346;SDS011;667;48.796;9.480;2022-08-21T06:51:59;12.33;;;8.27;;
1346;SDS011;667;48.796;9.480;2022-08-21T06:54:25;9.70;;;8.80;;
1346;SDS011;667;48.796;9.480;2022-08-21T06:56:50;10.90;;;9.30;;
1346;SDS011;667;48.796;9.480;2022-08-21T06:59:16;9.60;;;8.63;;
1346;SDS011;667;48.796;9.480;2022-08-21T07:01:42;9.97;;;9.17;;
1346;SDS011;667;48.796;9.480;2022-08-21T07:04:08;10.37;;;9.43;;
1346;SDS011;667;48.796;9.480;2022-08-21T07:06:33;14.43;;;11.60;;
1346;SDS011;667;48.796;9.480;2022-08-21T07:08:59;12.27;;;11.03;;
1346;SDS011;667;48.796;9.480;2022-08-21T07:11:26;15.90;;;14.40;;
1346;SDS011;667;48.796;9.480;2022-08-21T07:13:52;14.70;;;13.40;;
1346;SDS011;667;48.796;9.480;2022-08-21T07:16:19;16.67;;;15.07;;
1346;SDS011;667;48.796;9.480;2022-08-21T07:18:46;15.90;;;14.40;;
1346;SDS011;667;48.796;9.480;2022-08-21T07:21:12;15.33;;;13.93;;
1346;SDS011;667;48.796;9.480;2022-08-21T07:23:40;15.87;;;14.43;;
1346;SDS011;667;48.796;9.480;2022-08-21T07:26:07;15.67;;;14.27;;
1346;SDS011;667;48.796;9.480;2022-08-21T07:28:33;14.33;;;13.03;;
1346;SDS011;667;48.796;9.480;2022-08-21T07:31:01;11.10;;;10.20;;
1346;SDS011;667;48.796;9.480;2022-08-21T07:33:28;14.27;;;11.00;;
1346;SDS011;667;48.796;9.480;2022-08-21T07:35:55;12.17;;;11.17;;
1346;SDS011;667;48.796;9.480;2022-08-21T07:38:22;11.77;;;10.57;;
1346;SDS011;667;48.796;9.480;2022-08-21T07:40:48;8.40;;;7.80;;
1346;SDS011;667;48.796;9.480;2022-08-21T07:43:15;8.63;;;7.73;;
1346;SDS011;667;48.796;9.480;2022-08-21T07:45:44;7.30;;;6.77;;
1346;SDS011;667;48.796;9.480;2022-08-21T07:48:10;7.73;;;7.03;;
1346;SDS011;667;48.796;9.480;2022-08-21T07:50:35;7.20;;;6.57;;
1346;SDS011;667;48.796;9.480;2022-08-21T07:53:01;6.07;;;5.57;;
1346;SDS011;667;48.796;9.480;2022-08-21T07:55:27;6.13;;;5.73;;
1346;SDS011;667;48.796;9.480;2022-08-21T07:57:53;6.50;;;5.80;;
1346;SDS011;667;48.796;9.480;2022-08-21T08:00:20;6.77;;;4.83;;
1346;SDS011;667;48.796;9.480;2022-08-21T08:02:49;5.70;;;5.30;;
1346;SDS011;667;48.796;9.480;2022-08-21T08:05:16;5.17;;;4.77;;
1346;SDS011;667;48.796;9.480;2022-08-21T08:07:43;6.10;;;5.60;;
1346;SDS011;667;48.796;9.480;2022-08-21T08:10:09;6.53;;;5.80;;
1346;SDS011;667;48.796;9.480;2022-08-21T08:12:36;6.13;;;5.53;;
1346;SDS011;667;48.796;9.480;2022-08-21T08:15:03;6.03;;;5.43;;
1346;SDS011;667;48.796;9.480;2022-08-21T08:17:30;6.73;;;5.30;;
1346;SDS011;667;48.796;9.480;2022-08-21T08:19:57;8.10;;;4.93;;
1346;SDS011;667;48.796;9.480;2022-08-21T08:22:25;7.10;;;5.00;;
1346;SDS011;667;48.796;9.480;2022-08-21T08:24:52;5.87;;;5.20;;
1346;SDS011;667;48.796;9.480;2022-08-21T08:27:18;5.83;;;5.27;;
1346;SDS011;667;48.796;9.480;2022-08-21T08:29:44;5.43;;;4.93;;
1346;SDS011;667;48.796;9.480;2022-08-21T08:32:10;6.30;;;4.87;;
1346;SDS011;667;48.796;9.480;2022-08-21T08:34:37;6.67;;;5.33;;
1346;SDS011;667;48.796;9.480;2022-08-21T08:37:04;5.63;;;5.00;;
1346;SDS011;667;48.796;9.480;2022-08-21T08:39:32;5.80;;;5.30;;
1346;SDS011;667;48.796;9.480;2022-08-21T08:41:59;6.30;;;5.60;;
1346;SDS011;667;48.796;9.480;2022-08-21T08:44:34;7.03;;;5.30;;
1346;SDS011;667;48.796;9.480;2022-08-21T08:47:01;6.50;;;5.90;;
1346;SDS011;667;48.796;9.480;2022-08-21T08:52:23;6.30;;;5.47;;
1346;SDS011;667;48.796;9.480;2022-08-21T08:57:33;8.33;;;5.53;;
1346;SDS011;667;48.796;9.480;2022-08-21T09:00:01;5.57;;;5.17;;
1346;SDS011;667;48.796;9.480;2022-08-21T09:02:31;7.30;;;6.33;;
1346;SDS011;667;48.796;9.480;2022-08-21T09:04:58;5.80;;;5.20;;
1346;SDS011;667;48.796;9.480;2022-08-21T09:10:19;6.20;;;5.57;;
1346;SDS011;667;48.796;9.480;2022-08-21T09:26:31;5.60;;;4.67;;
1346;SDS011;667;48.796;9.480;2022-08-21T09:29:06;5.50;;;5.00;;
1346;SDS011;667;48.796;9.480;2022-08-21T09:31:35;8.47;;;5.37;;
1346;SDS011;667;48.796;9.480;2022-08-21T09:34:05;5.70;;;5.20;;
1346;SDS011;667;48.796;9.480;2022-08-21T09:36:47;7.03;;;5.03;;
1346;SDS011;667;48.796;9.480;2022-08-21T09:39:22;6.27;;;5.67;;
1346;SDS011;667;48.796;9.480;2022-08-21T09:44:26;6.13;;;5.53;;
1346;SDS011;667;48.796;9.480;2022-08-21T09:46:54;6.20;;;5.20;;
1346;SDS011;667;48.796;9.480;2022-08-21T09:49:35;5.77;;;5.17;;
1346;SDS011;667;48.796;9.480;2022-08-21T09:52:04;8.90;;;5.47;;
1346;SDS011;667;48.796;9.480;2022-08-21T09:54:51;6.40;;;5.07;;
1346;SDS011;667;48.796;9.480;2022-08-21T09:57:26;7.07;;;5.13;;
1346;SDS011;667;48.796;9.480;2022-08-21T10:00:27;6.93;;;5.10;;
1346;SDS011;667;48.796;9.480;2022-08-21T10:03:07;5.00;;;4.50;;
1346;SDS011;667;48.796;9.480;2022-08-21T10:05:39;4.73;;;4.20;;
1346;SDS011;667;48.796;9.480;2022-08-21T10:08:19;7.30;;;4.53;;
1346;SDS011;667;48.796;9.480;2022-08-21T10:10:49;5.13;;;4.57;;
1346;SDS011;667;48.796;9.480;2022-08-21T10:13:22;5.83;;;4.73;;
1346;SDS011;667;48.796;9.480;2022-08-21T10:18:27;6.47;;;4.53;;
1346;SDS011;667;48.796;9.480;2022-08-21T10:28:36;5.10;;;4.60;;
1346;SDS011;667;48.796;9.480;2022-08-21T10:37:03;5.83;;;4.97;;
1346;SDS011;667;48.796;9.480;2022-08-21T10:48:25;6.27;;;4.83;;
1346;SDS011;667;48.796;9.480;2022-08-21T10:51:06;6.60;;;4.87;;
1346;SDS011;667;48.796;9.480;2022-08-21T10:53:45;7.43;;;5.73;;
1346;SDS011;667;48.796;9.480;2022-08-21T10:56:19;7.33;;;5.10;;
1346;SDS011;667;48.796;9.480;2022-08-21T11:07:06;5.77;;;5.27;;
1346;SDS011;667;48.796;9.480;2022-08-21T11:09:41;5.50;;;4.53;;
1346;SDS011;667;48.796;9.480;2022-08-21T11:12:22;7.93;;;4.80;;
1346;SDS011;667;48.796;9.480;2022-08-21T11:15:01;4.70;;;4.30;;
1346;SDS011;667;48.796;9.480;2022-08-21T11:17:34;5.37;;;4.93;;
1346;SDS011;667;48.796;9.480;2022-08-21T11:20:12;5.40;;;4.90;;
1346;SDS011;667;48.796;9.480;2022-08-21T11:25:20;5.03;;;4.47;;
1346;SDS011;667;48.796;9.480;2022-08-21T11:27:58;5.40;;;4.90;;
1346;SDS011;667;48.796;9.480;2022-08-21T11:30:39;5.83;;;4.63;;
1346;SDS011;667;48.796;9.480;2022-08-21T11:38:42;5.27;;;4.77;;
1346;SDS011;667;48.796;9.480;2022-08-21T11:41:28;6.33;;;4.70;;
1346;SDS011;667;48.796;9.480;2022-08-21T11:47:00;4.60;;;4.20;;
1346;SDS011;667;48.796;9.480;2022-08-21T11:52:44;6.27;;;4.57;;
1346;SDS011;667;48.796;9.480;2022-08-21T11:55:39;6.00;;;4.17;;
1346;SDS011;667;48.796;9.480;2022-08-21T11:58:16;5.40;;;4.53;;
1346;SDS011;667;48.796;9.480;2022-08-21T12:00:52;4.23;;;3.93;;
1346;SDS011;667;48.796;9.480;2022-08-21T12:03:32;12.10;;;9.27;;
1346;SDS011;667;48.796;9.480;2022-08-21T12:06:05;6.00;;;4.47;;
1346;SDS011;667;48.796;9.480;2022-08-21T12:13:34;4.63;;;4.23;;
1346;SDS011;667;48.796;9.480;2022-08-21T12:16:29;6.37;;;4.93;;
1346;SDS011;667;48.796;9.480;2022-08-21T12:19:04;4.17;;;3.80;;
1346;SDS011;667;48.796;9.480;2022-08-21T12:29:49;5.03;;;4.33;;
1346;SDS011;667;48.796;9.480;2022-08-21T12:32:28;4.80;;;4.40;;
1346;SDS011;667;48.796;9.480;2022-08-21T12:35:09;5.70;;;4.23;;
1346;SDS011;667;48.796;9.480;2022-08-21T12:37:45;4.50;;;4.10;;
1346;SDS011;667;48.796;9.480;2022-08-21T12:40:41;4.60;;;4.20;;
1346;SDS011;667;48.796;9.480;2022-08-21T12:43:17;4.17;;;3.60;;
1346;SDS011;667;48.796;9.480;2022-08-21T12:45:47;4.93;;;4.17;;
1346;SDS011;667;48.796;9.480;2022-08-21T12:48:18;5.60;;;3.77;;
1346;SDS011;667;48.796;9.480;2022-08-21T12:50:52;4.40;;;3.93;;
1346;SDS011;667;48.796;9.480;2022-08-21T12:53:27;4.53;;;4.13;;
1346;SDS011;667;48.796;9.480;2022-08-21T12:56:11;7.40;;;4.10;;
1346;SDS011;667;48.796;9.480;2022-08-21T13:01:49;4.77;;;4.33;;
1346;SDS011;667;48.796;9.480;2022-08-21T13:04:18;10.13;;;4.87;;
1346;SDS011;667;48.796;9.480;2022-08-21T13:06:47;4.13;;;3.70;;
1346;SDS011;667;48.796;9.480;2022-08-21T13:09:24;4.83;;;4.33;;
1346;SDS011;667;48.796;9.480;2022-08-21T13:11:52;3.73;;;3.43;;
1346;SDS011;667;48.796;9.480;2022-08-21T13:14:40;4.20;;;3.80;;
1346;SDS011;667;48.796;9.480;2022-08-21T13:17:06;4.13;;;3.67;;
1346;SDS011;667;48.796;9.480;2022-08-21T13:19:34;4.43;;;4.03;;
1346;SDS011;667;48.796;9.480;2022-08-21T13:22:00;5.27;;;4.20;;
1346;SDS011;667;48.796;9.480;2022-08-21T13:24:27;4.80;;;3.77;;
1346;SDS011;667;48.796;9.480;2022-08-21T13:26:55;6.93;;;4.03;;
1346;SDS011;667;48.796;9.480;2022-08-21T13:29:23;4.27;;;3.80;;
1346;SDS011;667;48.796;9.480;2022-08-21T13:31:54;4.30;;;3.90;;
1346;SDS011;667;48.796;9.480;2022-08-21T13:34:28;3.77;;;3.47;;
1346;SDS011;667;48.796;9.480;2022-08-21T13:36:57;4.87;;;4.37;;
1346;SDS011;667;48.796;9.480;2022-08-21T13:39:25;4.80;;;3.83;;
1346;SDS011;667;48.796;9.480;2022-08-21T13:41:53;4.70;;;3.80;;
1346;SDS011;667;48.796;9.480;2022-08-21T13:44:35;5.07;;;4.20;;
1346;SDS011;667;48.796;9.480;2022-08-21T13:47:05;6.90;;;4.00;;
1346;SDS011;667;48.796;9.480;2022-08-21T13:49:38;4.13;;;3.83;;
1346;SDS011;667;48.796;9.480;2022-08-21T13:52:13;4.17;;;3.80;;
1346;SDS011;667;48.796;9.480;2022-08-21T13:54:41;4.03;;;3.67;;
1346;SDS011;667;48.796;9.480;2022-08-21T13:57:19;4.30;;;3.90;;
1346;SDS011;667;48.796;9.480;2022-08-21T13:59:50;4.30;;;4.00;;
1346;SDS011;667;48.796;9.480;2022-08-21T14:02:20;4.73;;;4.30;;
1346;SDS011;667;48.796;9.480;2022-08-21T14:07:40;4.03;;;3.50;;
1346;SDS011;667;48.796;9.480;2022-08-21T14:12:42;4.63;;;3.80;;
1346;SDS011;667;48.796;9.480;2022-08-21T14:20:42;4.17;;;3.30;;
1346;SDS011;667;48.796;9.480;2022-08-21T14:23:08;5.33;;;3.10;;
1346;SDS011;667;48.796;9.480;2022-08-21T14:25:41;3.57;;;3.10;;
1346;SDS011;667;48.796;9.480;2022-08-21T14:30:44;3.57;;;3.27;;
1346;SDS011;667;48.796;9.480;2022-08-21T14:33:12;4.10;;;3.33;;
1346;SDS011;667;48.796;9.480;2022-08-21T14:35:44;4.93;;;3.70;;
1346;SDS011;667;48.796;9.480;2022-08-21T14:38:16;5.80;;;3.57;;
1346;SDS011;667;48.796;9.480;2022-08-21T14:40:47;4.13;;;3.70;;
1346;SDS011;667;48.796;9.480;2022-08-21T14:43:18;3.77;;;3.47;;
1346;SDS011;667;48.796;9.480;2022-08-21T14:45:44;4.03;;;3.40;;
1346;SDS011;667;48.796;9.480;2022-08-21T14:48:10;4.37;;;3.70;;
1346;SDS011;667;48.796;9.480;2022-08-21T14:50:36;4.07;;;3.67;;
1346;SDS011;667;48.796;9.480;2022-08-21T14:53:02;5.30;;;3.57;;
1346;SDS011;667;48.796;9.480;2022-08-21T14:55:29;5.03;;;3.63;;
1346;SDS011;667;48.796;9.480;2022-08-21T14:58:16;4.20;;;3.63;;
1346;SDS011;667;48.796;9.480;2022-08-21T15:00:42;4.17;;;3.37;;
1346;SDS011;667;48.796;9.480;2022-08-21T15:03:07;5.27;;;3.97;;
1346;SDS011;667;48.796;9.480;2022-08-21T15:05:33;3.87;;;3.50;;
1346;SDS011;667;48.796;9.480;2022-08-21T15:07:59;4.00;;;3.30;;
1346;SDS011;667;48.796;9.480;2022-08-21T15:10:25;3.63;;;3.33;;
1346;SDS011;667;48.796;9.480;2022-08-21T15:12:51;4.80;;;4.20;;
1346;SDS011;667;48.796;9.480;2022-08-21T15:15:16;4.73;;;3.70;;
1346;SDS011;667;48.796;9.480;2022-08-21T15:17:42;3.60;;;3.30;;
1346;SDS011;667;48.796;9.480;2022-08-21T15:20:08;4.23;;;3.30;;
1346;SDS011;667;48.796;9.480;2022-08-21T15:22:34;4.40;;;3.60;;
1346;SDS011;667;48.796;9.480;2022-08-21T15:25:00;3.70;;;3.23;;
1346;SDS011;667;48.796;9.480;2022-08-21T15:27:26;3.63;;;2.90;;
1346;SDS011;667;48.796;9.480;2022-08-21T15:29:52;4.77;;;3.60;;
1346;SDS011;667;48.796;9.480;2022-08-21T15:32:23;3.23;;;2.93;;
1346;SDS011;667;48.796;9.480;2022-08-21T15:34:51;3.50;;;3.20;;
1346;SDS011;667;48.796;9.480;2022-08-21T15:37:17;4.77;;;3.70;;
1346;SDS011;667;48.796;9.480;2022-08-21T15:39:42;3.20;;;2.93;;
1346;SDS011;667;48.796;9.480;2022-08-21T15:42:09;3.60;;;3.30;;
1346;SDS011;667;48.796;9.480;2022-08-21T15:44:35;3.00;;;2.80;;
1346;SDS011;667;48.796;9.480;2022-08-21T15:47:01;4.67;;;3.13;;
1346;SDS011;667;48.796;9.480;2022-08-21T15:49:27;3.40;;;3.10;;
1346;SDS011;667;48.796;9.480;2022-08-21T15:51:52;4.50;;;4.10;;
1346;SDS011;667;48.796;9.480;2022-08-21T15:54:18;3.57;;;3.27;;
1346;SDS011;667;48.796;9.480;2022-08-21T15:56:44;4.10;;;2.80;;
1346;SDS011;667;48.796;9.480;2022-08-21T15:59:13;3.57;;;2.83;;
1346;SDS011;667;48.796;9.480;2022-08-21T16:01:43;3.83;;;3.53;;
1346;SDS011;667;48.796;9.480;2022-08-21T16:04:09;3.10;;;2.73;;
1346;SDS011;667;48.796;9.480;2022-08-21T16:06:38;3.40;;;3.10;;
1346;SDS011;667;48.796;9.480;2022-08-21T16:09:04;6.03;;;3.50;;
1346;SDS011;667;48.796;9.480;2022-08-21T16:11:30;2.90;;;2.70;;
1346;SDS011;667;48.796;9.480;2022-08-21T16:13:55;3.53;;;3.23;;
1346;SDS011;667;48.796;9.480;2022-08-21T16:16:22;3.50;;;3.17;;
1346;SDS011;667;48.796;9.480;2022-08-21T16:18:49;3.47;;;3.10;;
1346;SDS011;667;48.796;9.480;2022-08-21T16:21:16;3.20;;;3.00;;
1346;SDS011;667;48.796;9.480;2022-08-21T16:23:42;4.40;;;3.00;;
1346;SDS011;667;48.796;9.480;2022-08-21T16:26:08;3.33;;;3.03;;
1346;SDS011;667;48.796;9.480;2022-08-21T16:28:36;3.50;;;3.20;;
1346;SDS011;667;48.796;9.480;2022-08-21T16:31:05;3.20;;;2.90;;
1346;SDS011;667;48.796;9.480;2022-08-21T16:33:43;3.40;;;2.80;;
1346;SDS011;667;48.796;9.480;2022-08-21T16:36:14;6.67;;;2.93;;
1346;SDS011;667;48.796;9.480;2022-08-21T16:38:40;2.93;;;2.73;;
1346;SDS011;667;48.796;9.480;2022-08-21T16:41:08;3.60;;;3.20;;
1346;SDS011;667;48.796;9.480;2022-08-21T16:43:36;3.60;;;2.90;;
1346;SDS011;667;48.796;9.480;2022-08-21T16:46:04;3.67;;;3.30;;
1346;SDS011;667;48.796;9.480;2022-08-21T16:48:30;3.90;;;3.50;;
1346;SDS011;667;48.796;9.480;2022-08-21T16:50:56;4.13;;;3.53;;
1346;SDS011;667;48.796;9.480;2022-08-21T16:53:22;4.00;;;3.60;;
1346;SDS011;667;48.796;9.480;2022-08-21T16:55:49;5.93;;;3.40;;
1346;SDS011;667;48.796;9.480;2022-08-21T16:58:24;3.97;;;3.23;;
1346;SDS011;667;48.796;9.480;2022-08-21T17:00:55;3.47;;;3.17;;
1346;SDS011;667;48.796;9.480;2022-08-21T17:03:24;3.60;;;3.30;;
1346;SDS011;667;48.796;9.480;2022-08-21T17:05:53;4.90;;;3.17;;
1346;SDS011;667;48.796;9.480;2022-08-21T17:08:19;3.17;;;2.87;;
1346;SDS011;667;48.796;9.480;2022-08-21T17:10:46;3.43;;;3.13;;
1346;SDS011;667;48.796;9.480;2022-08-21T17:13:13;4.80;;;3.60;;
1346;SDS011;667;48.796;9.480;2022-08-21T17:15:39;6.17;;;3.53;;
1346;SDS011;667;48.796;9.480;2022-08-21T17:18:07;3.43;;;3.13;;
1346;SDS011;667;48.796;9.480;2022-08-21T17:20:35;4.13;;;3.60;;
1346;SDS011;667;48.796;9.480;2022-08-21T17:23:01;3.10;;;2.90;;